Weather at Schultz Airport [CLOSED]

Public forecast

Using degrees Fahrenheit for public forecast. Weather courtesy of forecast.io.

Closest aviation weather report (METAR) to Schultz Airport

Closest report is Jennings Airport, 16.2 nm (29.9 km) WSW.

2023/09/26 15:15 (retrieved 8 minutes ago)

K3R7 261515Z AUTO 00000KT 10SM BKN080 27/23 A3006 RMK AO2 T02680225

Closest aviation forecast (TAF) to Schultz Airport

Closest forecast is Lafayette Regional Airport, 23.0 nm (42.6 km) ESE.

2023/09/26 12:22 (retrieved 3 hours ago)

TAF KLFT 261120Z 2612/2712 00000KT 5SM BR BKN250 FM261300 02004KT P6SM SCT030 SCT120 FM262000 VRB05KT P6SM VCSH BKN120 FM270000 VRB03KT P6SM BKN150 FM271000 00000KT 4SM BR BKN250